Time;durP1;ratioP1;P1;durP2;ratioP2;P2;SDS_P1;SDS_P2;PMS_P1;PMS_P2;Temp;Humidity;BMP_temperature;BMP_pressure;BME280_temperature;BME280_humidity;BME280_pressure;Samples;Min_cycle;Max_cycle;Signal;HPM_P1;HPM_P2
2021/12/09 00:02:19;;;;;;;11.38;5.88;;;;;;;3.11;100.00;100081.66;5252195;28;20037;-70
2021/12/09 00:04:53;;;;;;;9.63;5.13;;;;;;;3.13;100.00;100087.56;5252834;28;20020;-70
2021/12/09 00:07:24;;;;;;;13.80;5.75;;;;;;;3.10;100.00;100087.75;5253303;28;20311;-70
2021/12/09 00:09:56;;;;;;;10.60;5.60;;;;;;;3.12;100.00;100080.72;5252364;28;20032;-70
2021/12/09 00:12:28;;;;;;;10.82;5.30;;;;;;;3.10;100.00;100092.94;5252379;28;20044;-72
2021/12/09 00:14:59;;;;;;;17.35;6.00;;;;;;;3.09;100.00;100096.47;5253306;28;20121;-70
2021/12/09 00:17:31;;;;;;;11.75;5.75;;;;;;;3.11;100.00;100092.03;5253768;28;20024;-72
2021/12/09 00:20:04;;;;;;;11.98;5.28;;;;;;;3.11;100.00;100089.44;5252115;28;20025;-70
2021/12/09 00:22:35;;;;;;;13.90;6.18;;;;;;;3.06;100.00;100084.53;5252198;28;20166;-70
2021/12/09 00:25:07;;;;;;;12.30;5.63;;;;;;;3.06;100.00;100088.88;5253225;28;20112;-70
2021/12/09 00:27:38;;;;;;;10.48;5.85;;;;;;;3.02;100.00;100097.78;5251483;28;20036;-73
2021/12/09 00:30:11;;;;;;;14.88;5.85;;;;;;;3.03;100.00;100100.28;5252616;28;20021;-70
2021/12/09 00:32:42;;;;;;;10.10;5.60;;;;;;;3.04;100.00;100095.94;5253203;28;20029;-72
2021/12/09 00:35:16;;;;;;;11.70;5.55;;;;;;;3.05;100.00;100097.59;5253235;28;20017;-70
2021/12/09 00:37:55;;;;;;;;;;;;;;;3.46;100.00;100097.44;5252418;28;20025;-74
2021/12/09 00:40:27;;;;;;;13.30;5.95;;;;;;;3.07;100.00;100106.06;5253007;28;19951;-70
2021/12/09 00:42:59;;;;;;;12.07;6.20;;;;;;;3.00;100.00;100099.66;5252622;28;20044;-70
2021/12/09 00:45:31;;;;;;;12.13;5.75;;;;;;;3.05;100.00;100103.59;5254294;28;20055;-71
2021/12/09 00:48:02;;;;;;;12.73;6.00;;;;;;;3.05;100.00;100093.25;5255594;28;20033;-70
2021/12/09 00:50:34;;;;;;;13.02;5.78;;;;;;;3.10;100.00;100098.09;5256150;28;20025;-70
2021/12/09 00:53:05;;;;;;;14.27;6.30;;;;;;;3.12;100.00;100097.09;5256923;28;20502;-73
2021/12/09 00:55:37;;;;;;;13.38;5.88;;;;;;;3.13;100.00;100105.69;5255437;28;20349;-70
2021/12/09 00:58:08;;;;;;;12.15;5.43;;;;;;;3.11;100.00;100103.19;5255999;28;20043;-70
2021/12/09 01:00:40;;;;;;;14.65;5.95;;;;;;;3.09;100.00;100097.28;5254875;28;20775;-70
2021/12/09 01:03:12;;;;;;;17.98;5.95;;;;;;;3.11;100.00;100107.56;5256037;28;20103;-70
2021/12/09 01:05:45;;;;;;;11.57;5.50;;;;;;;3.08;100.00;100105.97;5256626;28;20032;-71
2021/12/09 01:08:16;;;;;;;11.65;5.60;;;;;;;3.07;100.00;100100.88;5254951;28;20032;-70
2021/12/09 01:10:48;;;;;;;12.23;5.40;;;;;;;3.06;100.00;100104.41;5255792;28;20440;-71
2021/12/09 01:13:19;;;;;;;9.95;4.97;;;;;;;3.06;100.00;100109.59;5255936;28;20033;-70
2021/12/09 01:15:51;;;;;;;13.93;5.93;;;;;;;3.00;100.00;100107.44;5256404;28;20021;-71
2021/12/09 01:18:22;;;;;;;13.15;5.85;;;;;;;2.97;100.00;100112.78;5255114;28;20377;-72
2021/12/09 01:20:54;;;;;;;13.45;5.80;;;;;;;2.98;100.00;100117.84;5255400;28;20398;-70
2021/12/09 01:23:25;;;;;;;13.60;6.00;;;;;;;2.98;100.00;100111.84;5255619;28;20394;-70
2021/12/09 01:26:01;;;;;;;11.60;6.00;;;;;;;2.94;100.00;100116.41;5255417;28;20395;-71
2021/12/09 01:28:43;;;;;;;21.48;6.30;;;;;;;2.92;100.00;100113.09;5254414;28;20021;-71
2021/12/09 01:31:22;;;;;;;18.10;5.90;;;;;;;2.91;100.00;100121.75;5255881;28;20068;-70
2021/12/09 01:33:59;;;;;;;11.40;5.38;;;;;;;2.90;100.00;100120.13;5256099;28;20033;-70
2021/12/09 01:36:34;;;;;;;10.18;5.60;;;;;;;2.95;100.00;100117.22;5254678;28;20021;-71
2021/12/09 01:39:06;;;;;;;10.73;5.60;;;;;;;2.83;100.00;100116.25;5255014;28;20783;-73
2021/12/09 01:41:37;;;;;;;13.13;6.15;;;;;;;2.86;100.00;100118.66;5256133;28;20203;-70
2021/12/09 01:44:09;;;;;;;13.95;5.55;;;;;;;2.85;100.00;100117.81;5254824;28;20055;-70
2021/12/09 01:46:40;;;;;;;11.45;6.07;;;;;;;2.80;100.00;100116.44;5253987;28;20029;-70
2021/12/09 01:49:12;;;;;;;11.50;5.97;;;;;;;2.79;100.00;100113.03;5237161;28;20421;-71
2021/12/09 01:51:45;;;;;;;12.95;6.28;;;;;;;2.80;100.00;100111.28;5255557;28;20021;-71
2021/12/09 01:54:16;;;;;;;11.43;5.55;;;;;;;2.79;100.00;100107.88;5254463;28;20025;-70
2021/12/09 01:56:48;;;;;;;9.90;5.75;;;;;;;2.80;100.00;100108.69;5254508;28;20544;-71
2021/12/09 01:59:19;;;;;;;11.98;5.25;;;;;;;2.82;100.00;100112.03;5255279;28;20025;-70
2021/12/09 02:01:51;;;;;;;13.55;5.40;;;;;;;2.81;100.00;100108.59;5254747;28;20444;-70
2021/12/09 02:04:22;;;;;;;16.65;6.15;;;;;;;2.80;100.00;100111.28;5254528;28;20021;-70
2021/12/09 02:06:53;;;;;;;10.55;5.80;;;;;;;2.77;100.00;100108.91;5255271;28;20028;-70
2021/12/09 02:09:25;;;;;;;14.57;5.35;;;;;;;2.79;100.00;100110.44;5255081;28;20021;-70
2021/12/09 02:11:56;;;;;;;12.15;5.50;;;;;;;2.80;100.00;100106.94;5254259;28;20060;-70
2021/12/09 02:14:27;;;;;;;13.93;5.88;;;;;;;2.79;100.00;100109.63;5254909;28;20017;-70
2021/12/09 02:16:59;;;;;;;9.43;5.07;;;;;;;2.77;100.00;100103.72;5254740;28;20036;-70
2021/12/09 02:19:30;;;;;;;10.77;5.38;;;;;;;2.77;100.00;100108.91;5254608;28;20021;-70
2021/12/09 02:22:02;;;;;;;10.10;4.85;;;;;;;2.74;100.00;100104.75;5253605;28;20076;-70
2021/12/09 02:24:33;;;;;;;11.00;4.97;;;;;;;2.73;100.00;100092.75;5254614;28;20052;-70
2021/12/09 02:27:05;;;;;;;11.23;5.47;;;;;;;2.74;100.00;100099.56;5253243;28;20032;-70
2021/12/09 02:29:39;;;;;;;9.93;4.93;;;;;;;2.66;100.00;100094.91;5254509;28;20028;-70
2021/12/09 02:32:10;;;;;;;17.83;6.28;;;;;;;2.67;100.00;100096.53;5254425;28;20071;-70
2021/12/09 02:34:42;;;;;;;11.73;5.18;;;;;;;2.68;100.00;100098.19;5254493;28;20033;-70
2021/12/09 02:37:14;;;;;;;13.93;5.22;;;;;;;2.65;100.00;100103.59;5253758;28;20021;-70
2021/12/09 02:39:45;;;;;;;12.80;5.25;;;;;;;2.65;100.00;100102.72;5254293;28;20040;-70
2021/12/09 02:42:16;;;;;;;11.43;6.03;;;;;;;2.63;100.00;100094.25;5254485;28;20021;-70
2021/12/09 02:44:49;;;;;;;12.98;5.00;;;;;;;2.64;100.00;100095.91;5235828;28;20049;-70
2021/12/09 02:47:21;;;;;;;11.98;5.68;;;;;;;2.64;100.00;100101.09;5253910;28;20106;-70
2021/12/09 02:49:52;;;;;;;10.18;4.80;;;;;;;2.60;100.00;100107.38;5254023;28;20036;-70
2021/12/09 02:52:23;;;;;;;8.90;4.95;;;;;;;2.62;100.00;100108.13;5254495;28;20329;-70
2021/12/09 02:54:57;;;;;;;10.27;5.28;;;;;;;2.62;100.00;100100.38;5254208;28;20064;-70
2021/12/09 02:57:28;;;;;;;13.27;5.13;;;;;;;2.60;100.00;100107.38;5252679;28;20485;-70
2021/12/09 03:00:00;;;;;;;14.88;5.97;;;;;;;2.62;100.00;100108.94;5254045;28;20037;-70
2021/12/09 03:02:31;;;;;;;9.80;4.82;;;;;;;2.63;100.00;100107.19;5252684;28;20513;-70
2021/12/09 03:05:04;;;;;;;11.85;4.93;;;;;;;2.64;100.00;100114.84;5251612;28;20051;-70
2021/12/09 03:07:40;;;;;;;12.13;5.05;;;;;;;2.63;100.00;100118.38;5253675;28;20037;-70
2021/12/09 03:10:20;;;;;;;9.43;5.22;;;;;;;2.68;100.00;100126.66;5254008;28;20524;-70
2021/12/09 03:12:56;;;;;;;9.07;4.78;;;;;;;2.60;100.00;100121.13;5253888;28;20033;-70
2021/12/09 03:15:27;;;;;;;11.60;5.43;;;;;;;2.60;100.00;100117.72;5253755;28;20021;-70
2021/12/09 03:17:58;;;;;;;13.15;5.22;;;;;;;2.59;100.00;100119.47;5253535;28;20501;-70
2021/12/09 03:20:30;;;;;;;13.95;4.45;;;;;;;2.60;100.00;100126.31;5253671;28;20324;-70
2021/12/09 03:23:01;;;;;;;12.27;4.53;;;;;;;2.59;100.00;100131.59;5251683;28;20048;-70
2021/12/09 03:25:32;;;;;;;7.85;4.85;;;;;;;2.59;100.00;100140.16;5253915;28;20025;-70
2021/12/09 03:28:04;;;;;;;10.80;5.20;;;;;;;2.57;100.00;100143.78;5254114;28;20032;-70
2021/12/09 03:30:35;;;;;;;10.00;4.30;;;;;;;2.56;100.00;100140.34;5253460;28;20017;-70
2021/12/09 03:33:06;;;;;;;11.85;4.60;;;;;;;2.54;100.00;100133.63;5252514;28;20057;-70
2021/12/09 03:35:38;;;;;;;14.25;5.38;;;;;;;2.52;100.00;100125.13;5253369;28;20044;-70
2021/12/09 03:38:09;;;;;;;10.95;4.45;;;;;;;2.53;100.00;100127.63;5253778;28;20478;-70
2021/12/09 03:40:41;;;;;;;11.25;4.60;;;;;;;2.48;100.00;100129.66;5252865;28;20540;-70
2021/12/09 03:43:12;;;;;;;8.05;3.95;;;;;;;2.51;100.00;100142.41;5253178;28;20025;-70
2021/12/09 03:45:43;;;;;;;12.77;5.32;;;;;;;2.47;100.00;100140.94;5253572;28;20048;-70
2021/12/09 03:48:15;;;;;;;9.25;4.78;;;;;;;2.49;100.00;100144.25;5251081;28;20034;-70
2021/12/09 03:50:46;;;;;;;14.15;5.32;;;;;;;2.50;100.00;100153.69;5252190;28;20039;-70
2021/12/09 03:53:17;;;;;;;9.40;4.18;;;;;;;2.46;100.00;100159.13;5252927;28;20367;-70
2021/12/09 03:55:49;;;;;;;9.50;4.30;;;;;;;2.43;100.00;100152.41;5252272;28;20029;-70
2021/12/09 03:58:21;;;;;;;10.52;4.20;;;;;;;2.42;100.00;100150.72;5252560;28;20421;-70
2021/12/09 04:00:52;;;;;;;9.77;4.07;;;;;;;2.37;100.00;100156.19;5253055;28;20029;-70
2021/12/09 04:03:24;;;;;;;12.10;4.70;;;;;;;2.37;100.00;100157.94;5253304;28;20048;-70
2021/12/09 04:05:55;;;;;;;13.57;5.00;;;;;;;2.38;100.00;100155.25;5252766;28;20074;-70
2021/12/09 04:08:26;;;;;;;14.98;4.45;;;;;;;2.38;100.00;100138.91;5252947;28;20021;-70
2021/12/09 04:10:58;;;;;;;13.27;5.13;;;;;;;2.36;100.00;100149.38;5253118;28;20474;-70
2021/12/09 04:13:30;;;;;;;8.43;4.50;;;;;;;2.39;100.00;100140.59;5252238;28;20059;-70
2021/12/09 04:16:02;;;;;;;7.95;4.15;;;;;;;2.39;100.00;100148.34;5253037;28;20032;-70
2021/12/09 04:18:34;;;;;;;8.35;3.95;;;;;;;2.36;100.00;100156.28;5253544;28;20382;-70
2021/12/09 04:21:06;;;;;;;9.43;3.73;;;;;;;2.36;100.00;100151.13;5255546;28;20663;-70
2021/12/09 04:23:37;;;;;;;14.48;4.75;;;;;;;2.34;100.00;100150.38;5255760;28;20024;-70
2021/12/09 04:26:09;;;;;;;9.98;4.07;;;;;;;2.35;100.00;100149.44;5257303;28;20033;-70
2021/12/09 04:28:42;;;;;;;10.05;4.18;;;;;;;2.35;100.00;100149.44;5255685;28;20035;-70
2021/12/09 04:31:14;;;;;;;11.60;3.87;;;;;;;2.35;100.00;100149.44;5256508;28;20318;-70
2021/12/09 04:33:47;;;;;;;7.53;3.55;;;;;;;2.36;100.00;100156.28;5256919;28;20060;-70
2021/12/09 04:36:21;;;;;;;7.80;3.72;;;;;;;2.36;100.00;100156.28;5256556;28;20025;-70
2021/12/09 04:38:53;;;;;;;9.95;4.20;;;;;;;2.36;100.00;100157.13;5256544;28;20032;-70
2021/12/09 04:41:24;;;;;;;8.25;3.50;;;;;;;2.33;100.00;100156.47;5256873;28;20024;-70
2021/12/09 04:43:56;;;;;;;9.52;3.97;;;;;;;2.32;100.00;100168.56;5256485;28;20029;-70
2021/12/09 04:46:27;;;;;;;7.50;3.55;;;;;;;2.33;100.00;100161.66;5256024;28;20055;-70
2021/12/09 04:48:59;;;;;;;10.77;3.60;;;;;;;2.35;100.00;100175.28;5256532;28;20033;-70
2021/12/09 04:51:30;;;;;;;9.18;4.03;;;;;;;2.33;100.00;100156.47;5256096;28;20537;-70
2021/12/09 04:54:04;;;;;;;9.65;3.92;;;;;;;2.37;100.00;100166.53;5255635;28;20124;-70
2021/12/09 04:56:36;;;;;;;9.50;3.55;;;;;;;2.32;100.00;100162.56;5250206;28;20051;-70
2021/12/09 04:59:07;;;;;;;7.72;3.75;;;;;;;2.29;100.00;100155.00;5256350;28;20024;-70
2021/12/09 05:01:40;;;;;;;8.05;3.72;;;;;;;2.31;100.00;100160.91;5254853;28;20029;-70
2021/12/09 05:04:11;;;;;;;12.53;4.17;;;;;;;2.33;100.00;100159.06;5254849;28;20666;-70
2021/12/09 05:06:42;;;;;;;11.38;4.20;;;;;;;2.29;100.00;100161.00;5254433;28;20286;-70
2021/12/09 05:09:17;;;;;;;11.15;4.63;;;;;;;2.33;100.00;100157.31;5256486;28;20032;-70
2021/12/09 05:11:49;;;;;;;9.23;3.40;;;;;;;2.31;100.00;100169.50;5255533;28;20413;-70
2021/12/09 05:14:22;;;;;;;12.52;3.70;;;;;;;2.37;100.00;100169.09;5254804;28;20024;-70
2021/12/09 05:16:55;;;;;;;8.60;3.20;;;;;;;2.34;100.00;100176.22;5256105;28;20037;-70
2021/12/09 05:19:26;;;;;;;9.63;3.65;;;;;;;2.35;100.00;100175.28;5256146;28;20726;-70
2021/12/09 05:21:58;;;;;;;9.07;3.17;;;;;;;2.26;100.00;100178.44;5256960;28;20028;-70
2021/12/09 05:24:29;;;;;;;9.43;3.85;;;;;;;2.29;100.00;100181.69;5255320;28;20043;-70
2021/12/09 05:27:01;;;;;;;9.68;4.13;;;;;;;2.31;100.00;100187.59;5254186;28;20461;-70
2021/12/09 05:29:39;;;;;;;13.15;4.72;;;;;;;2.23;100.00;100176.88;5255293;28;20478;-70
2021/12/09 05:32:13;;;;;;;11.82;3.70;;;;;;;2.30;100.00;100177.34;5254214;28;21162;-70
2021/12/09 05:34:47;;;;;;;14.73;4.70;;;;;;;2.29;100.00;100170.50;5256330;28;20048;-70
2021/12/09 05:37:24;;;;;;;7.43;3.58;;;;;;;2.29;100.00;100170.50;5254686;28;20036;-70
2021/12/09 05:39:57;;;;;;;13.45;4.65;;;;;;;2.18;100.00;100168.56;5254361;28;20401;-70
2021/12/09 05:42:29;;;;;;;9.00;3.97;;;;;;;2.22;100.00;100182.16;5255753;28;20025;-70
2021/12/09 05:45:00;;;;;;;10.35;3.88;;;;;;;2.22;100.00;100193.31;5253853;28;20045;-70
2021/12/09 05:47:34;;;;;;;7.95;3.42;;;;;;;2.29;100.00;100193.78;5255770;28;20040;-70
2021/12/09 05:50:08;;;;;;;10.45;4.05;;;;;;;2.24;100.00;100198.41;5255097;28;20059;-70
2021/12/09 05:52:39;;;;;;;;;;;;;;;2.62;100.00;100196.88;5255416;28;20024;-70
2021/12/09 05:55:11;;;;;;;9.95;4.57;;;;;;;2.22;100.00;100197.66;5254729;28;19919;-70
2021/12/09 05:57:42;;;;;;;11.50;4.07;;;;;;;2.22;100.00;100198.47;5255152;28;20028;-70
2021/12/09 06:00:14;;;;;;;11.27;3.75;;;;;;;2.21;100.00;100199.41;5255374;28;20020;-70
2021/12/09 06:02:45;;;;;;;9.30;4.00;;;;;;;2.19;100.00;100191.72;5253223;28;20032;-70
2021/12/09 06:05:18;;;;;;;12.45;4.70;;;;;;;2.19;100.00;100198.66;5254740;28;20027;-70
2021/12/09 06:07:53;;;;;;;13.23;4.05;;;;;;;2.27;100.00;100195.59;5255415;28;20420;-70
2021/12/09 06:10:24;;;;;;;11.05;4.43;;;;;;;2.17;100.00;100192.75;5253662;28;20025;-70
2021/12/09 06:12:56;;;;;;;8.90;3.85;;;;;;;2.18;100.00;100199.59;5254583;28;20035;-70
2021/12/09 06:15:27;;;;;;;12.63;5.35;;;;;;;2.17;100.00;100198.75;5254720;28;20036;-70
2021/12/09 06:17:59;;;;;;;11.95;4.93;;;;;;;2.13;100.00;100186.94;5253926;28;20124;-70
2021/12/09 06:20:30;;;;;;;7.75;3.88;;;;;;;2.18;100.00;100197.00;5254630;28;20522;-70
2021/12/09 06:23:01;;;;;;;10.15;4.38;;;;;;;2.19;100.00;100194.31;5254679;28;20021;-70
2021/12/09 06:25:33;;;;;;;9.45;3.92;;;;;;;2.15;100.00;100195.44;5255189;28;20032;-70
2021/12/09 06:28:04;;;;;;;14.50;4.45;;;;;;;2.17;100.00;100191.00;5251976;28;20037;-70
2021/12/09 06:30:36;;;;;;;12.20;4.90;;;;;;;2.17;100.00;100188.44;5254345;28;20028;-70
2021/12/09 06:33:07;;;;;;;12.43;4.80;;;;;;;2.16;100.00;100191.94;5253812;28;20482;-70
2021/12/09 06:35:39;;;;;;;10.52;4.65;;;;;;;2.15;100.00;100195.44;5253920;28;20726;-70
2021/12/09 06:38:15;;;;;;;13.98;4.85;;;;;;;2.15;100.00;100195.44;5254361;28;20025;-70
2021/12/09 06:40:46;;;;;;;14.25;5.18;;;;;;;2.12;100.00;100189.59;5254459;28;20028;-70
2021/12/09 06:43:18;;;;;;;9.90;3.95;;;;;;;2.09;100.00;100193.22;5252246;28;20032;-70
2021/12/09 06:45:49;;;;;;;12.13;4.88;;;;;;;2.09;100.00;100200.97;5250095;28;20083;-70
2021/12/09 06:48:21;;;;;;;12.98;4.80;;;;;;;2.10;100.00;100204.38;5252377;28;20025;-70
2021/12/09 06:50:53;;;;;;;11.07;4.40;;;;;;;2.12;100.00;100205.97;5250749;28;20739;-70
2021/12/09 06:53:24;;;;;;;15.82;5.15;;;;;;;2.16;100.00;100209.19;5250672;28;20029;-70
2021/12/09 06:55:56;;;;;;;12.68;4.68;;;;;;;2.16;100.00;100211.78;5251661;28;20021;-70
2021/12/09 06:58:27;;;;;;;11.52;4.60;;;;;;;2.17;100.00;100210.84;5251309;28;20025;-70
2021/12/09 07:01:00;;;;;;;12.18;4.82;;;;;;;2.12;100.00;100210.28;5251797;28;20028;-70
2021/12/09 07:03:32;;;;;;;9.32;4.57;;;;;;;2.11;100.00;100214.63;5251604;28;20308;-70
2021/12/09 07:06:08;;;;;;;11.57;4.40;;;;;;;2.14;100.00;100211.84;5252676;28;20033;-70
2021/12/09 07:08:45;;;;;;;11.65;4.80;;;;;;;2.12;100.00;100213.72;5251357;28;20029;-70
2021/12/09 07:11:20;;;;;;;12.95;4.45;;;;;;;2.13;100.00;100220.53;5251722;28;20029;-70
2021/12/09 07:13:52;;;;;;;10.38;4.85;;;;;;;2.11;100.00;100219.78;5252461;28;20040;-70
2021/12/09 07:16:23;;;;;;;14.20;5.80;;;;;;;2.12;100.00;100225.78;5254067;28;20386;-70
2021/12/09 07:18:55;;;;;;;14.95;4.60;;;;;;;2.13;100.00;100222.31;5253994;28;20163;-70
2021/12/09 07:21:26;;;;;;;12.05;4.55;;;;;;;2.12;100.00;100216.31;5251671;28;20029;-70
2021/12/09 07:23:57;;;;;;;11.73;4.65;;;;;;;2.12;100.00;100224.06;5253120;28;20394;-70
2021/12/09 07:26:30;;;;;;;10.93;4.65;;;;;;;2.10;100.00;100219.88;5249770;28;20029;-70
2021/12/09 07:29:02;;;;;;;13.65;4.93;;;;;;;2.11;100.00;100218.97;5245118;28;20455;-70
2021/12/09 07:31:34;;;;;;;10.40;5.70;;;;;;;2.13;100.00;100220.53;5252704;28;20473;-70
2021/12/09 07:34:05;;;;;;;9.38;4.43;;;;;;;2.10;100.00;100222.47;5247195;28;20091;-70
2021/12/09 07:36:37;;;;;;;11.02;4.38;;;;;;;2.12;100.00;100220.63;5250721;28;20397;-70
2021/12/09 07:39:08;;;;;;;12.57;4.82;;;;;;;2.08;100.00;100216.56;5252181;28;20013;-70
2021/12/09 07:41:40;;;;;;;9.02;4.88;;;;;;;2.13;100.00;100223.13;5250703;28;20036;-70
2021/12/09 07:44:13;;;;;;;12.88;4.80;;;;;;;2.14;100.00;100229.94;5251364;28;20045;-70
2021/12/09 07:46:45;;;;;;;12.50;4.75;;;;;;;2.14;100.00;100229.94;5251971;28;20075;-70
2021/12/09 07:49:17;;;;;;;10.20;4.55;;;;;;;2.17;100.00;100236.69;5250434;28;20526;-70
2021/12/09 07:51:49;;;;;;;15.60;5.65;;;;;;;2.16;100.00;100232.47;5252483;28;20027;-70
2021/12/09 07:54:21;;;;;;;9.95;4.63;;;;;;;2.15;100.00;100230.78;5251284;28;20024;-70
2021/12/09 07:56:52;;;;;;;9.18;4.30;;;;;;;2.17;100.00;100228.94;5256205;28;20048;-70
2021/12/09 07:59:24;;;;;;;10.13;4.30;;;;;;;2.13;100.00;100227.47;5257831;28;20510;-69
2021/12/09 08:01:55;;;;;;;9.65;4.75;;;;;;;2.15;100.00;100233.34;5257389;28;20029;-69
2021/12/09 08:04:27;;;;;;;13.65;4.18;;;;;;;2.13;100.00;100232.63;5255730;28;20111;-69
2021/12/09 08:06:58;;;;;;;14.40;4.90;;;;;;;2.17;100.00;100242.69;5257704;28;20475;-69
2021/12/09 08:09:30;;;;;;;11.82;4.85;;;;;;;2.23;100.00;100248.41;5259584;28;20031;-69
2021/12/09 08:12:01;;;;;;;11.57;5.32;;;;;;;2.29;100.00;100250.63;5254959;28;20182;-69
2021/12/09 08:14:33;;;;;;;10.30;4.50;;;;;;;2.31;100.00;100253.94;5252899;28;20027;-69
2021/12/09 08:17:59;;;;;;;12.63;4.78;;;;;;;2.40;100.00;100258.56;5256892;28;20024;-69
2021/12/09 08:19:59;;;;;;;9.75;4.88;;;;;;;2.49;100.00;100258.00;5247725;28;20041;-69
2021/12/09 08:22:32;;;;;;;14.68;4.82;;;;;;;2.52;100.00;100257.81;5257256;28;20053;-69
2021/12/09 08:25:06;;;;;;;17.13;5.10;;;;;;;2.61;100.00;100259.00;5258253;28;20029;-69
2021/12/09 08:27:38;;;;;;;11.98;5.20;;;;;;;2.63;100.00;100252.00;5256751;28;20295;-69
2021/12/09 08:30:13;;;;;;;13.82;4.75;;;;;;;2.71;100.00;100254.13;5256515;28;20482;-69
2021/12/09 08:32:44;;;;;;;9.63;5.47;;;;;;;2.75;100.00;100253.84;5256148;28;20039;-69
2021/12/09 08:35:16;;;;;;;12.45;5.18;;;;;;;2.79;100.00;100249.31;5252382;28;20025;-69
2021/12/09 08:37:49;;;;;;;14.90;5.68;;;;;;;2.83;100.00;100253.34;5257619;28;20079;-69
2021/12/09 08:40:20;;;;;;;10.63;4.50;;;;;;;2.84;100.00;100239.50;5256296;28;20048;-69
2021/12/09 08:42:53;;;;;;;13.40;5.32;;;;;;;2.91;100.00;100254.53;5256577;28;20040;-69
2021/12/09 08:45:24;;;;;;;9.55;4.18;;;;;;;2.88;100.00;100247.00;5256404;28;20569;-69
2021/12/09 08:47:56;;;;;;;15.95;5.60;;;;;;;2.99;100.00;100250.63;5256516;28;20037;-69
2021/12/09 08:50:33;;;;;;;15.75;5.10;;;;;;;3.02;100.00;100259.03;5256270;28;20025;-70
2021/12/09 08:53:08;;;;;;;10.80;4.78;;;;;;;3.13;100.00;100259.19;5257273;28;20104;-69
2021/12/09 08:55:40;;;;;;;12.77;5.55;;;;;;;3.14;100.00;100265.19;5256368;28;20029;-69
2021/12/09 08:58:14;;;;;;;10.77;4.57;;;;;;;3.16;100.00;100265.94;5256983;28;20264;-69
2021/12/09 09:00:46;;;;;;;;;;;;;;;3.57;100.00;100258.13;5255483;28;20603;-69
2021/12/09 09:03:17;;;;;;;9.82;5.32;;;;;;;3.26;100.00;100266.19;5256630;28;19912;-69
2021/12/09 09:05:49;;;;;;;13.73;5.75;;;;;;;3.31;100.00;100261.56;5256638;28;20445;-69
2021/12/09 09:08:20;;;;;;;11.20;5.75;;;;;;;3.31;100.00;100264.16;5255755;28;20035;-69
2021/12/09 09:10:51;;;;;;;10.07;4.60;;;;;;;3.39;100.00;100265.31;5256663;28;20028;-70
2021/12/09 09:13:23;;;;;;;12.32;5.32;;;;;;;3.46;100.00;100259.75;5256970;28;20032;-69
2021/12/09 09:15:55;;;;;;;13.93;5.57;;;;;;;3.46;100.00;100257.16;5255909;28;20069;-70
2021/12/09 09:18:26;;;;;;;11.40;4.90;;;;;;;3.53;100.00;100261.84;5256403;28;20021;-70
2021/12/09 09:20:57;;;;;;;15.35;5.20;;;;;;;3.55;100.00;100265.16;5256000;28;20039;-70
2021/12/09 09:23:29;;;;;;;12.75;4.90;;;;;;;3.61;100.00;100259.59;5255532;28;20043;-69
2021/12/09 09:26:01;;;;;;;11.85;5.30;;;;;;;3.65;100.00;100255.84;5255484;28;20029;-70
2021/12/09 09:28:32;;;;;;;10.07;5.15;;;;;;;3.71;100.00;100256.38;5255526;28;20025;-70
2021/12/09 09:31:04;;;;;;;13.02;5.45;;;;;;;3.73;100.00;100260.53;5256059;28;20386;-70
2021/12/09 09:33:36;;;;;;;15.85;5.45;;;;;;;3.74;100.00;100267.38;5256084;28;20100;-70
2021/12/09 09:36:08;;;;;;;10.23;5.13;;;;;;;3.79;100.00;100265.31;5256284;28;20107;-70
2021/12/09 09:38:40;;;;;;;12.88;5.35;;;;;;;3.79;100.00;100262.72;5256373;28;20021;-70
2021/12/09 09:41:16;;;;;;;11.73;4.78;;;;;;;3.67;100.00;100271.28;5256762;28;20025;-70
2021/12/09 09:46:23;;;;;;;14.20;5.50;;;;;;;3.94;100.00;100270.41;5256742;28;20033;-70
2021/12/09 09:48:57;;;;;;;13.43;5.57;;;;;;;3.88;100.00;100275.06;5256251;28;20044;-70
2021/12/09 09:51:29;;;;;;;12.00;5.00;;;;;;;3.96;100.00;100277.16;5255714;28;20056;-70
2021/12/09 09:54:01;;;;;;;12.30;5.53;;;;;;;3.97;100.00;100278.81;5254048;28;20037;-70
2021/12/09 09:56:35;;;;;;;10.30;5.30;;;;;;;3.96;100.00;100284.09;5255663;28;20545;-70
2021/12/09 09:59:09;;;;;;;11.15;5.07;;;;;;;4.06;100.00;100290.34;5256472;28;20442;-70
2021/12/09 10:01:41;;;;;;;14.48;5.22;;;;;;;4.09;100.00;100288.38;5253154;28;20606;-70
2021/12/09 10:04:26;;;;;;;12.30;5.40;;;;;;;4.14;100.00;100291.50;5253797;28;20041;-70
2021/12/09 10:06:58;;;;;;;16.20;6.15;;;;;;;4.18;100.00;100280.91;5255293;28;20391;-70
2021/12/09 10:09:29;;;;;;;11.93;5.97;;;;;;;4.21;100.00;100281.53;5254511;28;20035;-70
2021/12/09 10:12:01;;;;;;;13.90;6.07;;;;;;;4.23;100.00;100277.06;5254169;28;20083;-70
2021/12/09 10:14:34;;;;;;;11.43;5.20;;;;;;;4.30;100.00;100285.28;5253879;28;20040;-70
2021/12/09 10:17:15;;;;;;;13.30;5.30;;;;;;;4.41;100.00;100274.19;5252538;28;20025;-70
2021/12/09 10:19:46;;;;;;;13.38;5.28;;;;;;;4.36;100.00;100271.91;5255306;28;20033;-70
2021/12/09 10:22:23;;;;;;;14.17;5.03;;;;;;;4.37;100.00;100256.22;5254338;28;20025;-70
2021/12/09 10:24:56;;;;;;;9.80;4.70;;;;;;;4.49;100.00;100254.56;5256250;28;20282;-70
2021/12/09 10:27:34;;;;;;;11.23;4.78;;;;;;;4.53;100.00;100250.81;5252506;28;20059;-70
2021/12/09 10:30:10;;;;;;;11.45;4.85;;;;;;;4.63;100.00;100258.78;5253769;28;20075;-70
2021/12/09 10:32:43;;;;;;;13.90;5.63;;;;;;;4.64;100.00;100257.84;5253493;28;20021;-70
2021/12/09 10:35:18;;;;;;;13.20;5.17;;;;;;;4.69;100.00;100252.34;5252768;28;20023;-70
2021/12/09 10:37:50;;;;;;;11.75;5.40;;;;;;;4.69;100.00;100247.97;5252162;28;20021;-70
2021/12/09 10:40:30;;;;;;;10.75;5.10;;;;;;;4.70;100.00;100251.41;5250594;28;20494;-70
2021/12/09 10:43:03;;;;;;;10.73;4.97;;;;;;;4.73;100.00;100253.78;5252571;28;20451;-70
2021/12/09 10:45:37;;;;;;;10.68;5.00;;;;;;;4.73;100.00;100254.59;5255307;28;20045;-70
2021/12/09 10:48:25;;;;;;;12.05;5.35;;;;;;;4.80;100.00;100260.19;5253161;28;20506;-70
2021/12/09 10:53:46;;;;;;;9.50;5.05;;;;;;;4.87;100.00;100258.84;5255133;28;20393;-70
2021/12/09 10:56:28;;;;;;;10.48;4.93;;;;;;;4.92;100.00;100266.28;5250091;28;20059;-70
2021/12/09 10:58:59;;;;;;;10.52;5.15;;;;;;;4.89;100.00;100262.16;5252009;28;20032;-70
2021/12/09 11:01:30;;;;;;;10.02;5.20;;;;;;;4.95;100.00;100266.09;5254014;28;20070;-70
2021/12/09 11:04:02;;;;;;;8.15;4.95;;;;;;;4.95;100.00;100253.94;5252137;28;20040;-70
2021/12/09 11:06:35;;;;;;;8.38;4.95;;;;;;;4.99;100.00;100259.75;5253045;28;20033;-70
2021/12/09 11:09:09;;;;;;;8.15;4.93;;;;;;;4.99;100.00;100249.34;5253699;28;20083;-70
2021/12/09 11:11:45;;;;;;;8.00;5.15;;;;;;;5.12;100.00;100250.97;5254701;28;20108;-70
2021/12/09 11:14:21;;;;;;;10.50;5.05;;;;;;;5.10;100.00;100254.63;5254301;28;20029;-70
2021/12/09 11:17:03;;;;;;;6.90;5.00;;;;;;;5.25;100.00;100245.72;5254250;28;20041;-70
2021/12/09 11:19:39;;;;;;;8.55;4.50;;;;;;;5.15;100.00;100244.72;5253036;28;20017;-70
2021/12/09 11:22:19;;;;;;;9.07;4.57;;;;;;;5.25;100.00;100242.31;5254001;28;20090;-70
2021/12/09 11:24:58;;;;;;;10.48;4.80;;;;;;;5.24;100.00;100235.47;5253351;28;20033;-70
2021/12/09 11:27:30;;;;;;;7.35;4.40;;;;;;;5.26;100.00;100234.38;5251348;28;20025;-70
2021/12/09 11:30:12;;;;;;;10.10;4.77;;;;;;;5.37;100.00;100231.84;5253619;28;20074;-70
2021/12/09 11:32:52;;;;;;;9.75;4.35;;;;;;;5.28;100.00;100232.53;5253585;28;20048;-71
2021/12/09 11:35:30;;;;;;;5.90;3.92;;;;;;;5.31;100.00;100237.50;5253853;28;20021;-70
2021/12/09 11:38:32;;;;;;;10.25;4.88;;;;;;;5.33;100.00;100230.41;5252757;28;20028;-71
2021/12/09 11:41:03;;;;;;;7.55;4.03;;;;;;;5.26;100.00;100229.19;5253262;28;20047;-70
2021/12/09 11:43:35;;;;;;;7.78;4.90;;;;;;;5.31;100.00;100232.31;5253732;28;20569;-70
2021/12/09 11:46:07;;;;;;;7.38;4.63;;;;;;;5.31;100.00;100221.09;5253701;28;20110;-71
2021/12/09 11:48:39;;;;;;;9.98;4.35;;;;;;;5.29;100.00;100225.56;5251850;28;20116;-70
2021/12/09 11:51:10;;;;;;;7.10;3.80;;;;;;;5.26;100.00;100221.41;5250427;28;20035;-70